AirNav   Everest Fuels
 
 846 users online  

5PA7 Indian Sleep Farm Heliport
Unionville, Pennsylvania, USA

GOING TO UNIONVILLE?


FAA INFORMATION EFFECTIVE 18 JUNE 2020

Location

FAA Identifier: 5PA7
Lat/Long: 39-55-29.3910N 075-41-45.7780W
39-55.489850N 075-41.762967W
39.9248308,-75.6960494
(estimated)
Elevation: 270 ft. / 82 m (estimated)
Variation: 11W (1990)
From city: 3 miles N of UNIONVILLE, PA
Time zone: UTC -4 (UTC -5 during Standard Time)
Zip code: 19382

Heliport Operations

Heliport use: Private use. Permission required prior to landing
Activation date: 05/1992
Control tower: no
ARTCC: NEW YORK CENTER
FSS: WILLIAMSPORT FLIGHT SERVICE STATION
Attendance: CONTINUOUS
Wind indicator: yes
Segmented circle: yes

Heliport Communications

WX AWOS-3T at OQN (7 nm NE): 121.4 ((610) 692-6190)
WX AWOS-3 at MQS (8 nm NW): 126.25 (610-384-6132)
WX ASOS at ILG (15 nm S): PHONE 302-328-1536
WX ASOS at PTW (20 nm N): 119.425 (610-495-0823)

Nearby radio navigation aids

VOR radial/distance  VOR name  Freq  Var
MXEr298/1.2MODENA VORTAC113.2009W
DQOr355/15.4DUPONT VORTAC114.0010W
PTWr208/18.9POTTSTOWN VORTAC116.5009W
OODr324/25.1WOODSTOWN VORTAC112.8010W
LRPr122/29.8LANCASTER VOR/DME117.3009W
ETXr190/39.4EAST TEXAS VOR/DME110.2009W

 
NDB name  Hdg/Dist  Freq  Var  ID
AMBLER249/22.427512WING .. -. --.
RAINBOW331/39.936311WRNB .-. -. -...

Heliport Services

Runway Information

Helipad H1

Dimensions: 100 x 100 ft. / 30 x 30 m
Surface: turf
Traffic pattern: leftleft

Heliport Ownership and Management from official FAA records

Ownership: Privately-owned
Owner: T.F. PASSALACQUA, JR.
271 BRANDYWINE DR, RFD4
WESTCHESTER, PA 19382
Phone 215-793-2284
Manager: T.F. PASSALACQUA, JR.
271 BRANDYWINE DR, RFD4
WESTCHESTER, PA 19382
Phone 215-793-2284

Heliport Operational Statistics

Aircraft based on the field: 1
Helicopters: 1
    

Additional Remarks

A52-H1 40 FT TREES 700 FT N OF HELIPAD.
FOR CD CTC PHILADELPHIA APCH AT 800-354-9884.

Instrument Procedures

There are no published instrument procedures at 5PA7.

Some nearby airports with instrument procedures:

KOQN - Brandywine Regional Airport (7 nm NE)
N57 - New Garden Airport (7 nm SW)
KMQS - Chester County G O Carlson Airport (8 nm NW)
KILG - New Castle Airport (15 nm S)
7N7 - Spitfire Aerodrome (18 nm SE)
KPTW - Heritage Field Airport (20 nm N)
 
Loc | Ops | Rwys | IFR | FBO | Links
Com | Nav | Svcs | Stats | Notes
Area around 5PA7 (Indian Sleep Farm Heliport)
 
Road maps at: MapQuest Bing Google
 
Aerial photo
No photo
 
Sectional chart

 
Airport distance calculator
Flying to Indian Sleep Farm Heliport? Find the distance to fly.

From to 5PA7

Sunrise and sunset
Times for 14-Jul-2020
 Local
(UTC-4)
 Zulu
(UTC)
Morning civil twilight05:1609:16
Sunrise05:4809:48
Sunset20:3000:30
Evening civil twilight21:0101:01

Current date and time
Zulu (UTC)  15-Jul-2020 03:20:01
Local (UTC-4)  14-Jul-2020 23:20:01
 
METAR
KOQN 
7nm NE 
150255Z AUTO 00000KT 10SM CLR 23/16 A3008 RMK AO2
KMQS 
8nm NW 
150255Z AUTO 28003KT 10SM CLR 21/16 A3010 RMK AO2
KILG 
16nm S 
150251Z 27003KT 10SM CLR 24/16 A3007 RMK AO2 SLP180 T02390161 52011 $
KPTW 
20nm N 
150254Z AUTO 00000KT 10SM CLR 20/17 A3009 RMK AO2 SLP184 T02000167 51012
TAF
KILG 
16nm S 
142102Z 1421/1518 33010KT P6SM FEW060 FM150000 VRB04KT P6SM SKC FM151200 05005KT P6SM FEW150
NOTAMs
Click for the latest NOTAMs
NOTAMs are issued by the DoD/FAA and will open in a separate window not controlled by AirNav.

 

 
 

Would you like to see your business listed on this page?

 If your business provides an interesting product or service to pilots, flight crews, aircraft, or users of the Indian Sleep Farm Heliport, you should consider listing it here.  To start the listing process, click on the button below
 
Add a business
 

Other Pages about Indian Sleep Farm Heliport

Update a link
 
Copyright © AirNav, LLC. All rights reserved. Privacy Policy  Contact